createdAt,value
2019-03-20T00:00:21.210Z,0.00
2019-03-20T00:01:21.160Z,0.00
2019-03-20T00:02:21.165Z,0.00
2019-03-20T00:03:21.140Z,0.00
2019-03-20T00:04:21.123Z,0.00
2019-03-20T00:05:21.111Z,0.00
2019-03-20T00:06:21.108Z,0.00
2019-03-20T00:07:21.097Z,0.00
2019-03-20T00:08:21.100Z,0.00
2019-03-20T00:09:21.079Z,0.00
2019-03-20T00:10:21.055Z,0.00
2019-03-20T00:11:21.057Z,0.00
2019-03-20T00:12:21.028Z,0.00
2019-03-20T00:13:21.033Z,0.00
2019-03-20T00:14:21.014Z,0.00
2019-03-20T00:15:21.013Z,0.00
2019-03-20T00:16:20.993Z,0.00
2019-03-20T00:17:20.996Z,0.00
2019-03-20T00:18:20.996Z,0.00
2019-03-20T00:19:20.971Z,0.00
2019-03-20T00:20:20.974Z,0.00
2019-03-20T00:21:20.933Z,0.00
2019-03-20T00:22:20.922Z,0.00
2019-03-20T00:23:20.910Z,0.00
2019-03-20T00:24:20.924Z,0.00
2019-03-20T00:25:20.909Z,0.00
2019-03-20T00:26:20.923Z,0.00
2019-03-20T00:27:20.855Z,0.00
2019-03-20T00:28:20.850Z,0.00
2019-03-20T00:29:20.841Z,0.00
2019-03-20T00:30:20.836Z,0.00
2019-03-20T00:31:20.851Z,0.00
2019-03-20T00:32:20.800Z,0.00
2019-03-20T00:33:20.791Z,0.00
2019-03-20T00:34:20.780Z,0.00
2019-03-20T00:35:21.145Z,0.00
2019-03-20T00:36:20.779Z,0.00
2019-03-20T00:37:20.755Z,0.00
2019-03-20T00:38:20.729Z,0.00
2019-03-20T00:39:20.717Z,0.00
2019-03-20T00:40:20.712Z,0.00
2019-03-20T00:41:20.716Z,0.00
2019-03-20T00:42:20.695Z,0.00
2019-03-20T00:43:20.701Z,0.00
2019-03-20T00:44:20.663Z,0.00
2019-03-20T00:45:20.671Z,0.00
2019-03-20T00:46:20.645Z,0.00
2019-03-20T00:47:20.628Z,0.00
2019-03-20T00:48:20.628Z,0.00
2019-03-20T00:49:20.605Z,0.00
2019-03-20T00:50:20.612Z,0.00
2019-03-20T00:51:20.596Z,0.00
2019-03-20T00:52:20.588Z,0.00
2019-03-20T00:53:20.595Z,0.00
2019-03-20T00:54:20.564Z,0.00
2019-03-20T00:55:20.621Z,0.00
2019-03-20T00:56:20.530Z,0.00
2019-03-20T00:57:20.524Z,0.00
2019-03-20T00:58:20.534Z,0.00
2019-03-20T00:59:20.508Z,0.00
2019-03-20T01:00:20.510Z,0.00
2019-03-20T01:01:20.474Z,0.00
2019-03-20T01:02:20.467Z,0.00
2019-03-20T01:03:20.449Z,0.00
2019-03-20T01:04:20.434Z,0.00
2019-03-20T01:05:20.448Z,0.00
2019-03-20T01:06:20.433Z,0.00
2019-03-20T01:07:20.408Z,0.00
2019-03-20T01:08:20.388Z,0.00
2019-03-20T01:09:20.403Z,0.00
2019-03-20T01:10:20.401Z,0.00
2019-03-20T01:11:20.369Z,0.00
2019-03-20T01:12:20.378Z,0.00
2019-03-20T01:13:20.343Z,0.00
2019-03-20T01:14:20.325Z,0.00
2019-03-20T01:15:20.339Z,0.00
2019-03-20T01:16:20.350Z,0.00
2019-03-20T01:17:20.296Z,0.00
2019-03-20T01:18:22.382Z,0.00
2019-03-20T01:19:20.277Z,0.00
2019-03-20T01:20:20.277Z,0.00
2019-03-20T01:21:20.244Z,0.00
2019-03-20T01:22:20.243Z,0.00
2019-03-20T01:23:20.218Z,0.00
2019-03-20T01:24:20.226Z,0.00
2019-03-20T01:25:20.247Z,0.00
2019-03-20T01:26:20.200Z,0.00
2019-03-20T01:27:20.188Z,0.00
2019-03-20T01:28:20.181Z,0.00
2019-03-20T01:29:20.194Z,0.00
2019-03-20T01:30:20.151Z,0.00
2019-03-20T01:31:20.150Z,0.00
2019-03-20T01:32:20.153Z,0.00
2019-03-20T01:33:20.200Z,0.00
2019-03-20T01:34:20.095Z,0.00
2019-03-20T01:35:24.084Z,0.00
2019-03-20T01:36:20.105Z,0.00
2019-03-20T01:37:20.087Z,0.00
2019-03-20T01:38:20.049Z,0.00
2019-03-20T01:39:20.082Z,0.00
2019-03-20T01:40:20.072Z,0.00
2019-03-20T01:41:20.032Z,0.00
2019-03-20T01:42:20.018Z,0.00
2019-03-20T01:43:20.006Z,0.00
2019-03-20T01:44:20.013Z,0.00
2019-03-20T01:45:20.004Z,0.00
2019-03-20T01:46:19.970Z,0.00
2019-03-20T01:47:19.950Z,0.00
2019-03-20T01:48:19.947Z,0.00
2019-03-20T01:49:19.960Z,0.00
2019-03-20T01:50:19.922Z,0.00
2019-03-20T01:51:19.928Z,0.00
2019-03-20T01:52:19.898Z,0.00
2019-03-20T01:53:19.884Z,0.00
2019-03-20T01:54:19.892Z,0.00
2019-03-20T01:55:19.915Z,0.00
2019-03-20T01:56:19.861Z,0.00
2019-03-20T01:57:19.835Z,0.00
2019-03-20T01:58:19.834Z,0.00
2019-03-20T01:59:19.838Z,0.00
2019-03-20T02:00:19.820Z,0.00
2019-03-20T02:01:19.804Z,0.00
2019-03-20T02:02:19.783Z,0.00
2019-03-20T02:03:19.765Z,0.00
2019-03-20T02:04:19.769Z,0.00
2019-03-20T02:05:19.780Z,0.00
2019-03-20T02:06:19.760Z,0.00
2019-03-20T02:07:19.733Z,0.00
2019-03-20T02:08:19.747Z,0.00
2019-03-20T02:09:19.704Z,0.00
2019-03-20T02:10:19.708Z,0.00
2019-03-20T02:11:19.720Z,0.00
2019-03-20T02:12:19.669Z,0.00
2019-03-20T02:13:19.652Z,0.00
2019-03-20T02:14:19.664Z,0.00
2019-03-20T02:15:19.694Z,0.00
2019-03-20T02:16:19.624Z,0.00
2019-03-20T02:17:19.608Z,0.00
2019-03-20T02:18:19.599Z,0.00
2019-03-20T02:19:19.590Z,0.00
2019-03-20T02:20:19.614Z,0.00
2019-03-20T02:21:19.601Z,0.00
2019-03-20T02:22:19.577Z,0.00
2019-03-20T02:23:19.541Z,0.00
2019-03-20T02:24:19.553Z,0.00
2019-03-20T02:25:19.575Z,0.00
2019-03-20T02:26:19.510Z,0.00
2019-03-20T02:27:19.500Z,0.00
2019-03-20T02:28:19.512Z,0.00
2019-03-20T02:29:19.482Z,0.00
2019-03-20T02:30:19.497Z,0.00
2019-03-20T02:31:19.467Z,0.00
2019-03-20T02:32:19.452Z,0.00
2019-03-20T02:33:19.435Z,0.00
2019-03-20T02:34:19.420Z,0.00
2019-03-20T02:35:19.482Z,0.00
2019-03-20T02:36:19.425Z,0.00
2019-03-20T02:37:19.381Z,0.00
2019-03-20T02:38:19.388Z,0.00
2019-03-20T02:39:19.395Z,0.00
2019-03-20T02:40:19.346Z,0.00
2019-03-20T02:41:19.347Z,0.00
2019-03-20T02:42:19.328Z,0.00
2019-03-20T02:43:19.331Z,0.00
2019-03-20T02:44:19.316Z,0.00
2019-03-20T02:45:19.323Z,0.00
2019-03-20T02:46:19.294Z,0.00
2019-03-20T02:47:19.267Z,0.00
2019-03-20T02:48:19.269Z,0.00
2019-03-20T02:49:19.262Z,0.00
2019-03-20T02:50:19.269Z,0.00
2019-03-20T02:51:19.278Z,0.00
2019-03-20T02:52:19.280Z,0.00
2019-03-20T02:53:19.199Z,0.00
2019-03-20T02:54:19.193Z,0.00
2019-03-20T02:55:19.184Z,0.00
2019-03-20T02:56:19.196Z,0.00
2019-03-20T02:57:19.165Z,0.00
2019-03-20T02:58:19.146Z,0.00
2019-03-20T02:59:19.142Z,0.00
2019-03-20T03:00:19.141Z,0.00
2019-03-20T03:01:19.147Z,0.00
2019-03-20T03:02:19.104Z,0.00
2019-03-20T03:03:19.111Z,0.00
2019-03-20T03:04:19.083Z,0.00
2019-03-20T03:05:19.071Z,0.00
2019-03-20T03:06:19.078Z,0.00
2019-03-20T03:07:19.063Z,0.00
2019-03-20T03:08:19.033Z,0.00
2019-03-20T03:09:19.037Z,0.00
2019-03-20T03:10:19.028Z,0.00
2019-03-20T03:11:19.016Z,0.00
2019-03-20T03:12:18.995Z,0.00
2019-03-20T03:13:18.999Z,0.00
2019-03-20T03:14:19.010Z,0.00
2019-03-20T03:15:18.956Z,0.00
2019-03-20T03:16:18.958Z,0.00
2019-03-20T03:17:18.955Z,0.00
2019-03-20T03:18:18.964Z,0.00
2019-03-20T03:19:19.021Z,0.00
2019-03-20T03:20:18.906Z,0.00
2019-03-20T03:21:18.911Z,0.00
2019-03-20T03:22:18.881Z,0.00
2019-03-20T03:23:18.865Z,0.00
2019-03-20T03:24:18.899Z,0.00
2019-03-20T03:25:19.230Z,0.00
2019-03-20T03:26:18.874Z,0.00
2019-03-20T03:27:18.823Z,0.00
2019-03-20T03:28:18.817Z,0.00
2019-03-20T03:29:18.860Z,0.00
2019-03-20T03:30:18.971Z,0.00
2019-03-20T03:31:18.790Z,0.00
2019-03-20T03:32:18.774Z,0.00
2019-03-20T03:33:18.750Z,0.00
2019-03-20T03:34:18.741Z,0.00
2019-03-20T03:35:20.100Z,0.00
2019-03-20T03:36:21.660Z,0.00
2019-03-20T03:37:18.725Z,0.00
2019-03-20T03:38:18.698Z,0.00
2019-03-20T03:39:18.682Z,0.00
2019-03-20T03:40:18.696Z,0.00
2019-03-20T03:41:18.680Z,0.00
2019-03-20T03:42:18.656Z,0.00
2019-03-20T03:43:18.650Z,0.00
2019-03-20T03:44:18.630Z,0.00
2019-03-20T03:45:18.646Z,0.00
2019-03-20T03:46:18.626Z,0.00
2019-03-20T03:47:18.589Z,0.00
2019-03-20T03:48:18.588Z,0.00
2019-03-20T03:49:18.565Z,0.00
2019-03-20T03:50:18.561Z,0.00
2019-03-20T03:51:18.562Z,0.00
2019-03-20T03:52:18.553Z,0.00
2019-03-20T03:53:18.527Z,0.00
2019-03-20T03:54:18.534Z,0.00
2019-03-20T03:55:18.506Z,0.00
2019-03-20T03:56:18.507Z,0.00
2019-03-20T03:57:18.488Z,0.00
2019-03-20T03:58:18.485Z,0.00
2019-03-20T03:59:18.455Z,0.00
2019-03-20T04:00:18.465Z,0.00
2019-03-20T04:01:18.470Z,0.00
2019-03-20T04:02:18.424Z,0.00
2019-03-20T04:03:18.419Z,0.00
2019-03-20T04:04:18.402Z,0.00
2019-03-20T04:05:18.392Z,0.00
2019-03-20T04:06:18.465Z,0.00
2019-03-20T04:07:18.365Z,0.00
2019-03-20T04:08:18.398Z,0.00
2019-03-20T04:09:18.352Z,0.00
2019-03-20T04:10:18.346Z,0.00
2019-03-20T04:11:18.318Z,0.00
2019-03-20T04:12:18.317Z,0.00
2019-03-20T04:13:18.315Z,0.00
2019-03-20T04:14:18.287Z,0.00
2019-03-20T04:15:18.296Z,0.00
2019-03-20T04:16:18.269Z,0.00
2019-03-20T04:17:18.276Z,0.00
2019-03-20T04:18:18.242Z,0.00
2019-03-20T04:19:18.241Z,0.00
2019-03-20T04:20:18.243Z,0.00
2019-03-20T04:21:18.205Z,0.00
2019-03-20T04:22:18.201Z,0.00
2019-03-20T04:23:18.183Z,0.00
2019-03-20T04:24:18.184Z,0.00
2019-03-20T04:25:18.241Z,0.00
2019-03-20T04:26:18.174Z,0.00
2019-03-20T04:27:18.148Z,0.00
2019-03-20T04:28:18.128Z,0.00
2019-03-20T04:29:18.117Z,0.00
2019-03-20T04:30:18.111Z,0.00
2019-03-20T04:31:18.103Z,0.00
2019-03-20T04:32:18.105Z,0.00
2019-03-20T04:33:18.079Z,0.00
2019-03-20T04:34:18.055Z,0.00
2019-03-20T04:35:18.056Z,0.00
2019-03-20T04:36:18.044Z,0.00
2019-03-20T04:37:18.070Z,0.00
2019-03-20T04:38:18.030Z,0.00
2019-03-20T04:39:18.014Z,0.00
2019-03-20T04:40:17.994Z,0.00
2019-03-20T04:41:18.100Z,0.00
2019-03-20T04:42:18.053Z,0.00
2019-03-20T04:43:18.046Z,0.00
2019-03-20T04:44:17.957Z,0.00
2019-03-20T04:45:17.937Z,0.00
2019-03-20T04:46:17.920Z,0.00
2019-03-20T04:47:17.928Z,0.00
2019-03-20T04:48:18.017Z,0.00
2019-03-20T04:49:17.889Z,0.00
2019-03-20T04:50:17.991Z,0.00
2019-03-20T04:51:18.003Z,0.00
2019-03-20T04:52:18.368Z,0.00
2019-03-20T04:53:17.852Z,0.00
2019-03-20T04:54:17.849Z,0.00
2019-03-20T04:55:17.880Z,0.00
2019-03-20T04:56:17.862Z,0.00
2019-03-20T04:57:17.802Z,0.00
2019-03-20T04:58:17.808Z,0.00
2019-03-20T04:59:17.786Z,0.00
2019-03-20T05:00:17.767Z,0.00
2019-03-20T05:01:17.764Z,0.00
2019-03-20T05:02:17.761Z,0.00
2019-03-20T05:03:17.739Z,0.00
2019-03-20T05:04:17.727Z,0.00
2019-03-20T05:05:17.721Z,0.00
2019-03-20T05:06:17.698Z,0.00
2019-03-20T05:07:17.703Z,0.00
2019-03-20T05:08:17.671Z,5.62
2019-03-20T05:09:17.672Z,5.62
2019-03-20T05:10:17.665Z,5.62
2019-03-20T05:11:17.666Z,5.62
2019-03-20T05:12:18.310Z,5.62
2019-03-20T05:13:17.630Z,5.62
2019-03-20T05:14:17.660Z,5.62
2019-03-20T05:15:17.601Z,5.62
2019-03-20T05:16:17.599Z,11.25
2019-03-20T05:17:17.577Z,11.25
2019-03-20T05:18:17.630Z,11.25
2019-03-20T05:19:17.545Z,11.25
2019-03-20T05:20:17.546Z,11.25
2019-03-20T05:21:17.549Z,11.25
2019-03-20T05:22:17.531Z,11.25
2019-03-20T05:23:17.501Z,16.88
2019-03-20T05:24:17.497Z,16.88
2019-03-20T05:25:17.477Z,16.88
2019-03-20T05:26:17.480Z,16.88
2019-03-20T05:27:17.465Z,16.88
2019-03-20T05:28:17.451Z,22.50
2019-03-20T05:29:17.436Z,22.50
2019-03-20T05:30:17.466Z,22.50
2019-03-20T05:31:17.424Z,22.50
2019-03-20T05:32:19.625Z,22.50
2019-03-20T05:33:17.394Z,28.12
2019-03-20T05:34:17.413Z,28.12
2019-03-20T05:35:17.374Z,28.12
2019-03-20T05:36:17.361Z,28.12
2019-03-20T05:37:17.358Z,28.12
2019-03-20T05:38:17.339Z,33.75
2019-03-20T05:39:17.343Z,33.75
2019-03-20T05:40:17.493Z,33.75
2019-03-20T05:41:17.304Z,33.75
2019-03-20T05:42:17.287Z,33.75
2019-03-20T05:43:17.274Z,33.75
2019-03-20T05:44:17.269Z,39.38
2019-03-20T05:45:17.257Z,39.38
2019-03-20T05:46:17.262Z,39.38
2019-03-20T05:47:17.230Z,39.38
2019-03-20T05:48:17.223Z,39.38
2019-03-20T05:49:17.211Z,45.00
2019-03-20T05:50:17.206Z,45.00
2019-03-20T05:51:17.198Z,45.00
2019-03-20T05:52:17.196Z,45.00
2019-03-20T05:53:17.161Z,45.00
2019-03-20T05:54:17.161Z,50.62
2019-03-20T05:55:17.156Z,50.62
2019-03-20T05:56:17.184Z,50.62
2019-03-20T05:57:17.125Z,50.62
2019-03-20T05:58:17.129Z,56.25
2019-03-20T05:59:17.093Z,56.25
2019-03-20T06:00:17.083Z,56.25
2019-03-20T06:01:17.112Z,56.25
2019-03-20T06:02:17.063Z,56.25
2019-03-20T06:03:17.075Z,61.88
2019-03-20T06:04:17.036Z,61.88
2019-03-20T06:05:17.233Z,61.88
2019-03-20T06:06:17.017Z,61.88
2019-03-20T06:07:21.574Z,61.88
2019-03-20T06:08:17.002Z,67.50
2019-03-20T06:09:17.004Z,67.50
2019-03-20T06:10:16.969Z,67.50
2019-03-20T06:11:16.968Z,67.50
2019-03-20T06:12:17.030Z,67.50
2019-03-20T06:13:16.935Z,73.12
2019-03-20T06:14:16.940Z,73.12
2019-03-20T06:15:16.946Z,73.12
2019-03-20T06:16:16.900Z,73.12
2019-03-20T06:17:16.892Z,73.12
2019-03-20T06:18:16.876Z,73.12
2019-03-20T06:19:16.877Z,78.75
2019-03-20T06:20:16.945Z,78.75
2019-03-20T06:21:16.844Z,78.75
2019-03-20T06:22:16.848Z,78.75
2019-03-20T06:23:16.831Z,78.75
2019-03-20T06:24:16.846Z,78.75
2019-03-20T06:25:16.880Z,84.38
2019-03-20T06:26:16.819Z,84.38
2019-03-20T06:27:16.774Z,84.38
2019-03-20T06:28:16.767Z,84.38
2019-03-20T06:29:16.764Z,84.38
2019-03-20T06:30:16.747Z,90.00
2019-03-20T06:31:18.784Z,90.00
2019-03-20T06:32:16.762Z,95.62
2019-03-20T06:33:16.711Z,90.00
2019-03-20T06:34:16.702Z,95.62
2019-03-20T06:35:16.701Z,101.25
2019-03-20T06:36:16.713Z,101.25
2019-03-20T06:37:16.698Z,101.25
2019-03-20T06:38:16.652Z,95.62
2019-03-20T06:39:16.652Z,95.62
2019-03-20T06:40:16.651Z,95.62
2019-03-20T06:41:16.652Z,95.62
2019-03-20T06:42:16.621Z,95.62
2019-03-20T06:43:16.629Z,95.62
2019-03-20T06:44:16.594Z,95.62
2019-03-20T06:45:16.586Z,95.62
2019-03-20T06:46:16.651Z,95.62
2019-03-20T06:47:16.553Z,95.62
2019-03-20T06:48:16.551Z,95.62
2019-03-20T06:49:16.537Z,95.62
2019-03-20T06:50:16.524Z,95.62
2019-03-20T06:51:16.518Z,95.62
2019-03-20T06:52:16.510Z,101.25
2019-03-20T06:53:16.483Z,101.25
2019-03-20T06:54:16.493Z,106.88
2019-03-20T06:55:16.517Z,106.88
2019-03-20T06:56:16.459Z,101.25
2019-03-20T06:57:16.453Z,101.25
2019-03-20T06:58:16.456Z,101.25
2019-03-20T06:59:16.420Z,101.25
2019-03-20T07:00:16.429Z,101.25
2019-03-20T07:01:16.399Z,101.25
2019-03-20T07:02:16.391Z,101.25
2019-03-20T07:03:16.396Z,101.25
2019-03-20T07:04:16.362Z,106.88
2019-03-20T07:05:16.359Z,106.88
2019-03-20T07:06:16.342Z,101.25
2019-03-20T07:07:16.374Z,101.25
2019-03-20T07:08:16.323Z,101.25
2019-03-20T07:09:16.302Z,101.25
2019-03-20T07:10:16.292Z,101.25
2019-03-20T07:11:16.277Z,101.25
2019-03-20T07:12:16.300Z,101.25
2019-03-20T07:13:16.254Z,101.25
2019-03-20T07:14:16.250Z,101.25
2019-03-20T07:15:16.263Z,101.25
2019-03-20T07:16:16.251Z,101.25
2019-03-20T07:17:16.231Z,106.88
2019-03-20T07:18:16.237Z,106.88
2019-03-20T07:19:16.196Z,106.88
2019-03-20T07:20:16.170Z,106.88
2019-03-20T07:21:18.644Z,106.88
2019-03-20T07:22:16.235Z,106.88
2019-03-20T07:23:16.170Z,106.88
2019-03-20T07:24:16.146Z,106.88
2019-03-20T07:25:16.131Z,106.88
2019-03-20T07:26:16.131Z,106.88
2019-03-20T07:27:16.109Z,106.88
2019-03-20T07:28:16.084Z,106.88
2019-03-20T07:29:16.079Z,106.88
2019-03-20T07:30:16.135Z,106.88
2019-03-20T07:31:16.159Z,106.88
2019-03-20T07:32:16.865Z,112.50
2019-03-20T07:33:16.041Z,112.50
2019-03-20T07:34:16.020Z,112.50
2019-03-20T07:35:16.000Z,112.50
2019-03-20T07:36:15.996Z,112.50
2019-03-20T07:37:15.983Z,112.50
2019-03-20T07:38:15.970Z,112.50
2019-03-20T07:39:15.972Z,112.50
2019-03-20T07:40:15.979Z,112.50
2019-03-20T07:41:15.941Z,112.50
2019-03-20T07:42:16.105Z,112.50
2019-03-20T07:43:15.923Z,112.50
2019-03-20T07:44:15.914Z,112.50
2019-03-20T07:45:15.887Z,112.50
2019-03-20T07:46:15.916Z,112.50
2019-03-20T07:47:16.098Z,112.50
2019-03-20T07:48:21.984Z,112.50
2019-03-20T07:49:16.841Z,118.12
2019-03-20T07:50:15.846Z,118.12
2019-03-20T07:51:15.820Z,123.75
2019-03-20T07:52:15.816Z,118.12
2019-03-20T07:53:15.792Z,118.12
2019-03-20T07:54:15.797Z,118.12
2019-03-20T07:55:15.836Z,118.12
2019-03-20T07:56:15.762Z,118.12
2019-03-20T07:57:15.811Z,123.75
2019-03-20T07:58:15.747Z,123.75
2019-03-20T07:59:15.729Z,123.75
2019-03-20T08:00:15.770Z,123.75
2019-03-20T08:01:15.727Z,129.38
2019-03-20T08:02:15.697Z,129.38
2019-03-20T08:03:15.896Z,135.00
2019-03-20T08:04:15.833Z,140.62
2019-03-20T08:05:15.799Z,140.62
2019-03-20T08:06:15.703Z,146.25
2019-03-20T08:07:15.695Z,146.25
2019-03-20T08:08:15.656Z,146.25
2019-03-20T08:09:15.669Z,140.62
2019-03-20T08:10:15.612Z,140.62
2019-03-20T08:11:15.644Z,135.00
2019-03-20T08:12:15.615Z,135.00
2019-03-20T08:13:15.708Z,135.00
2019-03-20T08:14:15.557Z,129.38
2019-03-20T08:15:15.557Z,129.38
2019-03-20T08:16:15.538Z,129.38
2019-03-20T08:17:15.526Z,123.75
2019-03-20T08:18:15.520Z,123.75
2019-03-20T08:19:15.501Z,123.75
2019-03-20T08:20:15.490Z,123.75
2019-03-20T08:21:15.490Z,123.75
2019-03-20T08:22:15.466Z,123.75
2019-03-20T08:23:15.476Z,123.75
2019-03-20T08:24:15.439Z,123.75
2019-03-20T08:25:15.474Z,123.75
2019-03-20T08:26:15.426Z,112.50
2019-03-20T08:27:15.412Z,118.12
2019-03-20T08:28:15.438Z,123.75
2019-03-20T08:29:15.404Z,123.75
2019-03-20T08:30:15.376Z,123.75
2019-03-20T08:31:15.387Z,129.38
2019-03-20T08:32:15.369Z,129.38
2019-03-20T08:33:15.343Z,129.38
2019-03-20T08:34:15.357Z,129.38
2019-03-20T08:35:15.317Z,129.38
2019-03-20T08:36:15.360Z,129.38
2019-03-20T08:37:15.301Z,129.38
2019-03-20T08:38:18.517Z,123.75
2019-03-20T08:39:15.282Z,118.12
2019-03-20T08:40:15.269Z,118.12
2019-03-20T08:41:15.248Z,135.00
2019-03-20T08:42:15.235Z,135.00
2019-03-20T08:43:15.242Z,129.38
2019-03-20T08:44:15.244Z,135.00
2019-03-20T08:45:15.214Z,135.00
2019-03-20T08:46:15.200Z,135.00
2019-03-20T08:47:15.181Z,135.00
2019-03-20T08:48:15.328Z,135.00
2019-03-20T08:49:15.173Z,135.00
2019-03-20T08:50:15.157Z,135.00
2019-03-20T08:51:15.134Z,135.00
2019-03-20T08:52:15.124Z,135.00
2019-03-20T08:53:15.121Z,135.00
2019-03-20T08:54:15.129Z,135.00
2019-03-20T08:55:15.089Z,129.38
2019-03-20T08:56:15.082Z,129.38
2019-03-20T08:57:15.268Z,129.38
2019-03-20T08:58:15.081Z,129.38
2019-03-20T08:59:15.068Z,123.75
2019-03-20T09:00:15.058Z,129.38
2019-03-20T09:01:15.024Z,129.38
2019-03-20T09:02:15.019Z,129.38
2019-03-20T09:03:15.008Z,123.75
2019-03-20T09:04:15.308Z,123.75
2019-03-20T09:05:14.981Z,123.75
2019-03-20T09:06:14.987Z,123.75
2019-03-20T09:07:14.962Z,123.75
2019-03-20T09:08:14.972Z,123.75
2019-03-20T09:09:14.959Z,123.75
2019-03-20T09:10:14.923Z,123.75
2019-03-20T09:11:14.929Z,123.75
2019-03-20T09:12:14.954Z,123.75
2019-03-20T09:13:14.888Z,123.75
2019-03-20T09:14:14.889Z,123.75
2019-03-20T09:15:14.876Z,123.75
2019-03-20T09:16:14.874Z,123.75
2019-03-20T09:17:14.863Z,129.38
2019-03-20T09:18:14.858Z,129.38
2019-03-20T09:19:14.848Z,129.38
2019-03-20T09:20:14.805Z,129.38
2019-03-20T09:21:14.806Z,129.38
2019-03-20T09:22:14.795Z,129.38
2019-03-20T09:23:14.783Z,129.38
2019-03-20T09:24:14.814Z,129.38
2019-03-20T09:25:14.753Z,129.38
2019-03-20T09:26:14.762Z,129.38
2019-03-20T09:27:14.738Z,129.38
2019-03-20T09:28:14.726Z,129.38
2019-03-20T09:29:18.865Z,129.38
2019-03-20T09:30:14.702Z,135.00
2019-03-20T09:31:14.689Z,135.00
2019-03-20T09:32:14.673Z,135.00
2019-03-20T09:33:14.673Z,135.00
2019-03-20T09:34:14.678Z,135.00
2019-03-20T09:35:14.653Z,135.00
2019-03-20T09:36:14.645Z,135.00
2019-03-20T09:37:14.627Z,135.00
2019-03-20T09:38:14.610Z,135.00
2019-03-20T09:39:14.602Z,135.00
2019-03-20T09:40:14.603Z,140.62
2019-03-20T09:41:14.568Z,140.62
2019-03-20T09:42:14.593Z,140.62
2019-03-20T09:43:14.637Z,140.62
2019-03-20T09:44:14.536Z,140.62
2019-03-20T09:45:14.566Z,146.25
2019-03-20T09:46:14.517Z,146.25
2019-03-20T09:47:14.508Z,146.25
2019-03-20T09:48:14.510Z,146.25
2019-03-20T09:49:14.510Z,151.88
2019-03-20T09:50:14.475Z,151.88
2019-03-20T09:51:14.458Z,151.88
2019-03-20T09:52:14.449Z,151.88
2019-03-20T09:53:14.439Z,151.88
2019-03-20T09:54:14.422Z,151.88
2019-03-20T09:55:14.423Z,151.88
2019-03-20T09:56:14.401Z,163.12
2019-03-20T09:57:14.384Z,163.12
2019-03-20T09:58:14.372Z,174.38
2019-03-20T09:59:14.374Z,174.38
2019-03-20T10:00:14.402Z,174.38
2019-03-20T10:01:14.345Z,174.38
2019-03-20T10:02:14.331Z,174.38
2019-03-20T10:03:14.333Z,168.75
2019-03-20T10:04:14.315Z,168.75
2019-03-20T10:05:14.336Z,168.75
2019-03-20T10:06:14.374Z,174.38
2019-03-20T10:07:14.283Z,180.00
2019-03-20T10:08:14.258Z,174.38
2019-03-20T10:09:14.249Z,174.38
2019-03-20T10:10:14.384Z,168.75
2019-03-20T10:11:14.261Z,157.50
2019-03-20T10:12:14.230Z,151.88
2019-03-20T10:13:14.198Z,146.25
2019-03-20T10:14:14.187Z,135.00
2019-03-20T10:15:14.197Z,123.75
2019-03-20T10:16:14.161Z,118.12
2019-03-20T10:17:14.158Z,118.12
2019-03-20T10:18:14.157Z,118.12
2019-03-20T10:19:14.343Z,123.75
2019-03-20T10:20:14.133Z,129.38
2019-03-20T10:21:14.120Z,135.00
2019-03-20T10:22:14.102Z,129.38
2019-03-20T10:23:14.100Z,129.38
2019-03-20T10:24:14.099Z,135.00
2019-03-20T10:25:14.071Z,135.00
2019-03-20T10:26:14.058Z,135.00
2019-03-20T10:27:14.036Z,135.00
2019-03-20T10:28:14.074Z,140.62
2019-03-20T10:29:14.037Z,140.62
2019-03-20T10:30:14.034Z,140.62
2019-03-20T10:31:13.987Z,135.00
2019-03-20T10:32:14.008Z,140.62
2019-03-20T10:33:16.445Z,140.62
2019-03-20T10:34:13.970Z,140.62
2019-03-20T10:35:13.984Z,140.62
2019-03-20T10:36:13.995Z,140.62
2019-03-20T10:37:13.921Z,140.62
2019-03-20T10:38:13.907Z,140.62
2019-03-20T10:39:13.946Z,140.62
2019-03-20T10:40:13.920Z,140.62
2019-03-20T10:41:13.872Z,140.62
2019-03-20T10:42:13.869Z,140.62
2019-03-20T10:43:13.869Z,140.62
2019-03-20T10:44:13.866Z,146.25
2019-03-20T10:45:13.835Z,146.25
2019-03-20T10:46:13.845Z,140.62
2019-03-20T10:47:13.806Z,140.62
2019-03-20T10:48:13.858Z,151.88
2019-03-20T10:49:13.831Z,151.88
2019-03-20T10:50:13.822Z,151.88
2019-03-20T10:51:13.785Z,157.50
2019-03-20T10:52:13.743Z,151.88
2019-03-20T10:53:13.746Z,151.88
2019-03-20T10:54:13.733Z,157.50
2019-03-20T10:55:13.714Z,157.50
2019-03-20T10:56:13.727Z,157.50
2019-03-20T10:57:13.709Z,163.12
2019-03-20T10:58:13.681Z,157.50
2019-03-20T10:59:13.663Z,168.75
2019-03-20T11:00:13.662Z,140.62
2019-03-20T11:01:13.663Z,163.12
2019-03-20T11:02:13.651Z,157.50
2019-03-20T11:03:13.621Z,174.38
2019-03-20T11:04:13.647Z,185.62
2019-03-20T11:05:13.663Z,174.38
2019-03-20T11:06:13.600Z,196.88
2019-03-20T11:07:13.576Z,196.88
2019-03-20T11:08:13.577Z,258.75
2019-03-20T11:09:18.132Z,275.62
2019-03-20T11:10:14.538Z,247.50
2019-03-20T11:11:13.539Z,208.12
2019-03-20T11:12:13.510Z,241.88
2019-03-20T11:13:13.519Z,247.50
2019-03-20T11:14:13.500Z,225.00
2019-03-20T11:15:13.580Z,236.25
2019-03-20T11:16:13.496Z,281.25
2019-03-20T11:17:13.462Z,309.38
2019-03-20T11:18:13.564Z,348.75
2019-03-20T11:19:13.449Z,326.25
2019-03-20T11:20:13.431Z,286.88
2019-03-20T11:21:13.801Z,275.62
2019-03-20T11:22:18.669Z,241.88
2019-03-20T11:23:14.401Z,247.50
2019-03-20T11:24:15.340Z,236.25
2019-03-20T11:25:13.384Z,219.38
2019-03-20T11:26:13.366Z,196.88
2019-03-20T11:27:13.345Z,213.75
2019-03-20T11:28:13.331Z,247.50
2019-03-20T11:29:13.321Z,298.12
2019-03-20T11:30:13.311Z,320.62
2019-03-20T11:31:13.318Z,303.75
2019-03-20T11:32:14.459Z,309.38
2019-03-20T11:33:13.283Z,354.38
2019-03-20T11:34:13.271Z,348.75
2019-03-20T11:35:13.267Z,343.12
2019-03-20T11:36:13.385Z,315.00
2019-03-20T11:37:13.267Z,292.50
2019-03-20T11:38:13.607Z,292.50
2019-03-20T11:39:14.046Z,281.25
2019-03-20T11:40:14.181Z,258.75
2019-03-20T11:41:13.960Z,247.50
2019-03-20T11:42:13.856Z,208.12
2019-03-20T11:43:13.507Z,196.88
2019-03-20T11:44:13.267Z,196.88
2019-03-20T11:45:13.771Z,202.50
2019-03-20T11:46:13.322Z,225.00
2019-03-20T11:47:13.905Z,236.25
2019-03-20T11:48:22.334Z,270.00
2019-03-20T11:49:13.799Z,292.50
2019-03-20T11:50:13.303Z,320.62
2019-03-20T11:51:13.474Z,320.62
2019-03-20T11:52:13.592Z,343.12
2019-03-20T11:53:13.223Z,360.00
2019-03-20T11:54:13.150Z,337.50
2019-03-20T11:55:13.085Z,348.75
2019-03-20T11:56:13.142Z,337.50
2019-03-20T11:57:13.006Z,320.62
2019-03-20T11:58:14.358Z,315.00
2019-03-20T11:59:12.982Z,315.00
2019-03-20T12:00:13.055Z,320.62
2019-03-20T12:01:13.025Z,303.75
2019-03-20T12:02:12.957Z,286.88
2019-03-20T12:03:12.945Z,281.25
2019-03-20T12:04:12.914Z,281.25
2019-03-20T12:05:12.906Z,286.88
2019-03-20T12:06:12.927Z,286.88
2019-03-20T12:07:12.903Z,275.62
2019-03-20T12:08:12.880Z,270.00
2019-03-20T12:09:12.998Z,275.62
2019-03-20T12:10:13.056Z,270.00
2019-03-20T12:11:13.991Z,270.00
2019-03-20T12:12:13.823Z,270.00
2019-03-20T12:13:12.817Z,270.00
2019-03-20T12:14:12.836Z,253.12
2019-03-20T12:15:12.791Z,247.50
2019-03-20T12:16:21.844Z,253.12
2019-03-20T12:17:14.479Z,241.88
2019-03-20T12:18:16.055Z,236.25
2019-03-20T12:19:14.439Z,230.62
2019-03-20T12:20:15.366Z,230.62
2019-03-20T12:21:14.003Z,219.38
2019-03-20T12:22:12.919Z,213.75
2019-03-20T12:23:12.879Z,219.38
2019-03-20T12:24:13.229Z,213.75
2019-03-20T12:25:12.746Z,213.75
2019-03-20T12:26:13.757Z,213.75
2019-03-20T12:27:15.388Z,225.00
2019-03-20T12:28:12.723Z,219.38
2019-03-20T12:29:12.709Z,219.38
2019-03-20T12:30:12.625Z,230.62
2019-03-20T12:31:13.277Z,225.00
2019-03-20T12:32:12.846Z,219.38
2019-03-20T12:33:14.642Z,208.12
2019-03-20T12:34:13.394Z,213.75
2019-03-20T12:35:12.596Z,241.88
2019-03-20T12:36:12.661Z,258.75
2019-03-20T12:37:13.315Z,275.62
2019-03-20T12:38:15.153Z,247.50
2019-03-20T12:39:12.980Z,225.00
2019-03-20T12:40:13.355Z,241.88
2019-03-20T12:42:31.403Z,270.00
2019-03-20T12:43:31.042Z,275.62
2019-03-20T12:44:38.675Z,275.62
2019-03-20T12:45:46.243Z,264.38
2019-03-20T12:46:40.923Z,270.00
2019-03-20T12:47:31.946Z,270.00
2019-03-20T12:48:30.811Z,281.25
2019-03-20T12:49:32.429Z,298.12
2019-03-20T12:50:30.636Z,337.50
2019-03-20T12:51:30.587Z,365.62
2019-03-20T12:52:30.565Z,343.12